Time;durP1;ratioP1;P1;durP2;ratioP2;P2;SDS_P1;SDS_P2;PMS_P1;PMS_P2;Temp;Humidity;BMP_temperature;BMP_pressure;BME280_temperature;BME280_humidity;BME280_pressure;Samples;Min_cycle;Max_cycle;Signal;HPM_P1;HPM_P2
2021/10/05 00:02:18;;;;;;;4.57;1.33;;;;;;;6.26;100.00;99627.69;4982656;28;20088;-67
2021/10/05 00:04:44;;;;;;;2.78;1.52;;;;;;;6.26;100.00;99622.34;4986330;28;20085;-66
2021/10/05 00:07:10;;;;;;;3.67;1.60;;;;;;;6.28;100.00;99638.19;4986368;28;20034;-69
2021/10/05 00:09:37;;;;;;;4.07;1.45;;;;;;;6.26;100.00;99637.53;4968217;28;20070;-69
2021/10/05 00:12:03;;;;;;;3.15;1.50;;;;;;;6.18;100.00;99640.25;4985537;28;20109;-69
2021/10/05 00:14:29;;;;;;;4.00;1.70;;;;;;;6.12;100.00;99647.94;4972264;28;20043;-67
2021/10/05 00:16:55;;;;;;;2.25;1.55;;;;;;;6.05;100.00;99646.13;4969664;28;20471;-67
2021/10/05 00:19:21;;;;;;;2.30;1.70;;;;;;;5.97;100.00;99652.34;4957975;28;20034;-67
2021/10/05 00:21:49;;;;;;;5.22;1.50;;;;;;;5.89;100.00;99653.16;4961155;28;20037;-69
2021/10/05 00:24:15;;;;;;;2.00;1.30;;;;;;;5.86;100.00;99660.69;4976338;28;20030;-70
2021/10/05 00:26:41;;;;;;;3.90;1.40;;;;;;;5.83;100.00;99667.22;4960112;28;20491;-68
2021/10/05 00:29:06;;;;;;;3.92;1.30;;;;;;;5.77;100.00;99664.38;4989128;28;20436;-70
2021/10/05 00:31:32;;;;;;;2.97;1.30;;;;;;;5.71;100.00;99676.56;4986951;28;20041;-69
2021/10/05 00:33:58;;;;;;;2.58;1.27;;;;;;;5.68;100.00;99677.75;4956667;28;20076;-69
2021/10/05 00:36:23;;;;;;;1.98;1.23;;;;;;;5.68;100.00;99671.59;4990308;28;20133;-69
2021/10/05 00:38:49;;;;;;;4.55;1.50;;;;;;;5.63;100.00;99680.09;4989002;28;20039;-68
2021/10/05 00:41:15;;;;;;;3.97;1.88;;;;;;;5.56;100.00;99679.13;4973698;28;20030;-70
2021/10/05 00:43:40;;;;;;;1.95;1.30;;;;;;;5.60;100.00;99696.44;4983622;28;20045;-69
2021/10/05 00:46:08;;;;;;;2.40;1.30;;;;;;;5.54;100.00;99689.13;4986130;28;20048;-67
2021/10/05 00:48:34;;;;;;;2.40;1.50;;;;;;;5.55;100.00;99698.78;4963054;28;20035;-68
2021/10/05 00:50:59;;;;;;;2.63;1.50;;;;;;;5.49;100.00;99704.78;4970224;28;20042;-68
2021/10/05 00:53:25;;;;;;;3.55;1.45;;;;;;;5.43;100.00;99714.31;4984843;28;20035;-69
2021/10/05 00:55:51;;;;;;;2.17;1.30;;;;;;;5.43;100.00;99716.13;4971219;28;20124;-69
2021/10/05 00:58:17;;;;;;;2.20;1.50;;;;;;;5.42;100.00;99727.78;4971695;28;20022;-68
2021/10/05 01:00:43;;;;;;;4.10;1.75;;;;;;;5.36;100.00;99723.13;4957356;28;20034;-69
2021/10/05 01:03:09;;;;;;;4.25;1.85;;;;;;;5.32;100.00;99735.97;4993522;28;20134;-69
2021/10/05 01:05:35;;;;;;;4.15;1.45;;;;;;;5.25;100.00;99742.97;4973367;28;20034;-68
2021/10/05 01:08:01;;;;;;;4.65;2.35;;;;;;;5.24;100.00;99755.47;4997453;28;20547;-70
2021/10/05 01:10:27;;;;;;;3.38;1.70;;;;;;;5.18;100.00;99756.09;4986130;28;20034;-69
2021/10/05 01:12:53;;;;;;;3.67;2.30;;;;;;;5.17;100.00;99762.44;4952383;28;20030;-70
2021/10/05 01:15:24;;;;;;;10.95;2.90;;;;;;;5.16;100.00;99763.44;4956104;28;20034;-70
2021/10/05 01:17:51;;;;;;;4.65;2.83;;;;;;;5.10;100.00;99761.44;4983484;28;20046;-68
2021/10/05 01:20:16;;;;;;;6.70;4.13;;;;;;;5.10;100.00;99769.41;5003976;28;20403;-69
2021/10/05 01:22:42;;;;;;;4.95;3.15;;;;;;;5.07;100.00;99775.91;4983777;28;20031;-69
2021/10/05 01:25:11;;;;;;;4.38;2.70;;;;;;;5.07;100.00;99781.25;4985043;28;20448;-70
2021/10/05 01:27:44;;;;;;;3.80;2.22;;;;;;;5.05;100.00;99782.41;4981116;28;20046;-68
2021/10/05 01:30:10;;;;;;;10.50;2.67;;;;;;;5.07;100.00;99783.06;4983217;28;20045;-70
2021/10/05 01:32:36;;;;;;;3.38;1.85;;;;;;;5.09;100.00;99785.59;4971655;28;20044;-69
2021/10/05 01:35:04;;;;;;;4.57;1.70;;;;;;;5.09;100.00;99782.94;4955374;28;20146;-70
2021/10/05 01:37:29;;;;;;;4.45;1.60;;;;;;;5.11;100.00;99789.75;4964793;28;20514;-68
2021/10/05 01:39:55;;;;;;;2.25;1.52;;;;;;;5.15;100.00;99791.06;4984751;28;20391;-69
2021/10/05 01:42:20;;;;;;;6.25;1.55;;;;;;;5.22;100.00;99793.94;4965959;28;20057;-68
2021/10/05 01:44:46;;;;;;;3.42;1.90;;;;;;;5.28;100.00;99790.59;4957040;28;20045;-70
2021/10/05 01:47:31;;;;;;;2.53;1.60;;;;;;;5.43;100.00;99796.13;4985925;28;20565;-69
2021/10/05 01:49:57;;;;;;;1.88;1.23;;;;;;;5.47;100.00;99784.09;4989515;28;20030;-68
2021/10/05 01:52:23;;;;;;;4.32;1.30;;;;;;;5.60;100.00;99791.59;4985670;28;21857;-69
2021/10/05 01:54:49;;;;;;;2.20;1.30;;;;;;;5.54;100.00;99795.78;4988845;28;20042;-68
2021/10/05 01:57:14;;;;;;;2.90;1.50;;;;;;;5.49;100.00;99801.59;4978265;28;20446;-69
2021/10/05 01:59:40;;;;;;;2.58;1.42;;;;;;;5.37;100.00;99805.63;4955531;28;20038;-70
2021/10/05 02:02:06;;;;;;;2.00;1.30;;;;;;;5.28;100.00;99809.25;4989584;28;20573;-70
2021/10/05 02:04:31;;;;;;;1.90;1.08;;;;;;;5.20;100.00;99810.06;4986938;28;20042;-68
2021/10/05 02:06:57;;;;;;;1.98;1.13;;;;;;;5.17;100.00;99823.72;4978348;28;20046;-68
2021/10/05 02:09:23;;;;;;;1.77;1.02;;;;;;;5.08;100.00;99824.72;4980279;28;20038;-67
2021/10/05 02:11:48;;;;;;;5.60;1.35;;;;;;;4.96;100.00;99820.69;4982689;28;21045;-70
2021/10/05 02:14:14;;;;;;;2.80;1.25;;;;;;;4.93;100.00;99829.00;4985809;28;20121;-69
2021/10/05 02:16:40;;;;;;;2.75;1.23;;;;;;;4.87;100.00;99821.66;4986172;28;20077;-69
2021/10/05 02:19:06;;;;;;;1.65;1.10;;;;;;;4.85;100.00;99837.81;4986382;28;20471;-68
2021/10/05 02:21:32;;;;;;;1.88;1.05;;;;;;;4.81;100.00;99847.94;4952691;28;20034;-70
2021/10/05 02:27:00;;;;;;;1.87;0.90;;;;;;;4.74;100.00;99851.44;4975824;28;20201;-69
2021/10/05 02:29:25;;;;;;;1.58;0.80;;;;;;;4.80;100.00;99848.09;4969841;28;20638;-69
2021/10/05 02:31:51;;;;;;;1.63;1.02;;;;;;;4.76;100.00;99852.06;4960716;28;20038;-69
2021/10/05 02:34:18;;;;;;;1.42;0.90;;;;;;;4.70;100.00;99848.22;4984398;28;20044;-69
2021/10/05 02:36:43;;;;;;;1.00;0.73;;;;;;;4.70;100.00;99863.38;4983727;28;20041;-69
2021/10/05 02:39:10;;;;;;;2.55;0.80;;;;;;;4.69;100.00;99862.53;4981623;28;20034;-69
2021/10/05 02:41:35;;;;;;;1.02;0.70;;;;;;;4.67;100.00;99869.03;4983251;28;20443;-69
2021/10/05 02:44:02;;;;;;;1.17;0.73;;;;;;;4.63;100.00;99865.81;4987112;28;20041;-67
2021/10/05 02:46:27;;;;;;;1.00;0.80;;;;;;;4.59;100.00;99860.00;4985686;28;20092;-69
2021/10/05 02:48:53;;;;;;;2.53;0.93;;;;;;;4.56;100.00;99862.16;4973005;28;20144;-69
2021/10/05 02:51:19;;;;;;;2.63;1.20;;;;;;;4.54;100.00;99867.63;4967500;28;20519;-69
2021/10/05 02:53:45;;;;;;;1.33;0.88;;;;;;;4.53;100.00;99867.81;4953382;28;20137;-68
2021/10/05 02:56:13;;;;;;;2.53;0.80;;;;;;;4.48;100.00;99870.09;4986851;28;20042;-70
2021/10/05 02:58:39;;;;;;;2.38;0.80;;;;;;;4.49;100.00;99871.75;4970297;28;20046;-69
2021/10/05 03:01:04;;;;;;;1.13;0.73;;;;;;;4.48;100.00;99870.09;4988172;28;20319;-67
2021/10/05 03:03:30;;;;;;;3.60;0.70;;;;;;;4.53;100.00;99867.81;4989615;28;20117;-71
2021/10/05 03:05:56;;;;;;;1.20;0.70;;;;;;;4.54;100.00;99885.44;4955331;28;20034;-69
2021/10/05 03:08:29;;;;;;;3.45;0.77;;;;;;;4.48;100.00;99884.25;4952284;28;20035;-68
2021/10/05 03:10:58;;;;;;;2.27;0.70;;;;;;;4.47;100.00;99879.06;4952478;28;20042;-69
2021/10/05 03:13:24;;;;;;;1.33;0.88;;;;;;;4.57;100.00;99887.78;4992485;28;20039;-68
2021/10/05 03:15:50;;;;;;;2.28;1.05;;;;;;;4.59;100.00;99896.44;4987373;28;20203;-66
2021/10/05 03:18:15;;;;;;;1.77;0.70;;;;;;;4.61;100.00;99897.97;4988911;28;20080;-69
2021/10/05 03:20:43;;;;;;;2.65;0.70;;;;;;;4.60;100.00;99890.13;4979170;28;20042;-69
2021/10/05 03:23:08;;;;;;;2.55;0.93;;;;;;;4.66;100.00;99892.16;4997193;28;20034;-67
2021/10/05 03:25:34;;;;;;;1.75;0.77;;;;;;;4.73;100.00;99895.84;4990236;28;20034;-67
2021/10/05 03:28:00;;;;;;;2.50;1.00;;;;;;;4.87;100.00;99901.56;4987566;28;20046;-68
2021/10/05 03:30:28;;;;;;;3.35;1.08;;;;;;;4.92;100.00;99912.56;4991445;28;20065;-67
2021/10/05 03:32:53;;;;;;;1.25;0.80;;;;;;;4.93;100.00;99914.25;4975591;28;20491;-69
2021/10/05 03:35:19;;;;;;;2.03;0.70;;;;;;;4.88;100.00;99920.06;4975373;28;20078;-70
2021/10/05 03:37:45;;;;;;;3.05;0.70;;;;;;;4.81;100.00;99914.50;4955965;28;20030;-68
2021/10/05 03:40:11;;;;;;;1.75;0.60;;;;;;;4.74;100.00;99918.00;4954795;28;20057;-69
2021/10/05 03:42:36;;;;;;;3.55;0.60;;;;;;;4.71;100.00;99916.50;4951991;28;20501;-69
2021/10/05 03:45:02;;;;;;;1.20;0.60;;;;;;;4.61;100.00;99907.78;4987390;28;20081;-70
2021/10/05 03:47:28;;;;;;;4.93;0.90;;;;;;;4.66;100.00;99928.59;4984634;28;20081;-71
2021/10/05 03:49:54;;;;;;;3.00;0.70;;;;;;;4.61;100.00;99926.41;4990320;28;20041;-70
2021/10/05 03:52:20;;;;;;;1.92;1.23;;;;;;;4.60;100.00;99927.38;4969885;28;20074;-70
2021/10/05 03:54:45;;;;;;;2.20;0.70;;;;;;;4.56;100.00;99934.03;4973807;28;20043;-70
2021/10/05 03:57:11;;;;;;;2.22;0.70;;;;;;;4.52;100.00;99948.63;4975138;28;20046;-70
2021/10/05 03:59:37;;;;;;;4.53;1.00;;;;;;;4.46;100.00;99954.59;4962091;28;20514;-69
2021/10/05 04:02:03;;;;;;;1.77;0.50;;;;;;;4.44;100.00;99964.56;4956531;28;20143;-68
2021/10/05 04:04:29;;;;;;;1.90;0.80;;;;;;;4.34;100.00;99957.53;4990290;28;20488;-70
2021/10/05 04:06:54;;;;;;;2.15;0.75;;;;;;;4.43;100.00;99966.38;4971478;28;20066;-71
2021/10/05 04:09:20;;;;;;;2.53;0.85;;;;;;;4.39;100.00;99967.69;4988629;28;20435;-69
2021/10/05 04:11:45;;;;;;;3.53;0.77;;;;;;;4.37;100.00;99964.38;4985818;28;20462;-68
2021/10/05 04:14:11;;;;;;;3.15;0.85;;;;;;;4.32;100.00;99962.16;4976059;28;20086;-70
2021/10/05 04:16:37;;;;;;;1.17;0.70;;;;;;;4.35;100.00;99972.50;4987049;28;20042;-66
2021/10/05 04:19:03;;;;;;;2.65;0.70;;;;;;;4.30;100.00;99969.44;4975963;28;20585;-69
2021/10/05 04:21:29;;;;;;;0.50;0.50;;;;;;;4.30;100.00;99974.78;5003265;28;20045;-69
2021/10/05 04:23:55;;;;;;;2.17;0.77;;;;;;;4.28;100.00;99970.59;5006794;28;20038;-69
2021/10/05 04:26:21;;;;;;;0.93;0.60;;;;;;;4.25;100.00;99976.22;4961781;28;20038;-71
2021/10/05 04:28:46;;;;;;;1.33;0.68;;;;;;;4.17;100.00;99969.84;4986783;28;20065;-69
2021/10/05 04:31:24;;;;;;;1.33;0.55;;;;;;;4.13;100.00;99973.00;4982075;28;20510;-70
2021/10/05 04:33:53;;;;;;;1.33;0.60;;;;;;;4.16;100.00;99984.16;4972229;28;20038;-68
2021/10/05 04:36:19;;;;;;;3.95;0.77;;;;;;;4.16;100.00;99999.28;4976145;28;20060;-69
2021/10/05 04:38:44;;;;;;;4.43;0.80;;;;;;;4.15;100.00;99998.47;4956951;28;20503;-70
2021/10/05 04:41:18;;;;;;;3.00;0.70;;;;;;;4.20;100.00;100000.63;4972305;28;20053;-71
2021/10/05 04:43:46;;;;;;;1.20;0.65;;;;;;;4.26;100.00;100002.69;4977410;28;20034;-70
2021/10/05 04:46:12;;;;;;;2.17;0.90;;;;;;;4.22;100.00;100009.31;4967289;28;20505;-69
2021/10/05 04:48:39;;;;;;;2.13;0.85;;;;;;;4.24;100.00;100011.81;4985333;28;20034;-68
2021/10/05 04:51:05;;;;;;;3.05;0.80;;;;;;;4.20;100.00;100013.94;4985280;28;20168;-67
2021/10/05 04:53:31;;;;;;;5.65;0.90;;;;;;;4.19;100.00;100020.25;4966907;28;20125;-69
2021/10/05 04:55:56;;;;;;;1.63;0.90;;;;;;;4.17;100.00;100027.56;4972259;28;20447;-69
2021/10/05 04:58:22;;;;;;;5.63;0.80;;;;;;;4.17;100.00;100027.56;4949542;28;20117;-70
2021/10/05 05:00:50;;;;;;;1.13;0.63;;;;;;;4.19;100.00;100033.56;4983532;28;20476;-69
2021/10/05 05:03:19;;;;;;;3.08;0.80;;;;;;;4.18;100.00;100035.41;4991498;28;20065;-69
2021/10/05 05:05:44;;;;;;;1.75;0.60;;;;;;;4.14;100.00;100033.19;4958250;28;20483;-70
2021/10/05 05:08:13;;;;;;;2.33;0.63;;;;;;;4.11;100.00;100033.50;4982936;28;20038;-71
2021/10/05 05:10:39;;;;;;;3.70;0.70;;;;;;;4.06;100.00;100033.94;4957887;28;20034;-70
2021/10/05 05:13:04;;;;;;;1.15;0.60;;;;;;;4.04;100.00;100040.41;4954249;28;20034;-70
2021/10/05 05:15:30;;;;;;;1.02;0.77;;;;;;;4.02;100.00;100035.22;4987787;28;20053;-68
2021/10/05 05:17:56;;;;;;;1.17;0.70;;;;;;;4.02;100.00;100047.69;4989092;28;20491;-68
2021/10/05 05:20:21;;;;;;;1.25;0.80;;;;;;;4.01;100.00;100051.34;4958069;28;20038;-68
2021/10/05 05:22:47;;;;;;;3.35;0.80;;;;;;;3.98;100.00;100055.16;4954915;28;20038;-70
2021/10/05 05:25:13;;;;;;;0.52;0.52;;;;;;;3.96;100.00;100059.75;4985330;28;20038;-70
2021/10/05 05:27:39;;;;;;;2.13;0.68;;;;;;;3.96;100.00;100062.44;4966514;28;20034;-70
2021/10/05 05:30:06;;;;;;;3.17;0.75;;;;;;;4.01;100.00;100067.31;4991425;28;20039;-70
2021/10/05 05:32:31;;;;;;;3.55;0.77;;;;;;;3.97;100.00;100058.81;4986257;28;20026;-70
2021/10/05 05:34:57;;;;;;;1.58;0.85;;;;;;;4.05;100.00;100072.19;4989472;28;20036;-71
2021/10/05 05:37:26;;;;;;;1.20;0.65;;;;;;;4.10;100.00;100077.88;4967915;28;20030;-71
2021/10/05 05:39:51;;;;;;;3.92;0.80;;;;;;;4.12;100.00;100083.03;4987049;28;20030;-69
2021/10/05 05:42:17;;;;;;;0.77;0.60;;;;;;;4.10;100.00;100090.34;4988849;28;20045;-68
2021/10/05 05:44:43;;;;;;;2.13;0.80;;;;;;;4.01;100.00;100084.09;4985436;28;20030;-70
2021/10/05 05:47:09;;;;;;;4.03;0.90;;;;;;;4.03;100.00;100100.75;4967619;28;20033;-68
2021/10/05 05:49:35;;;;;;;2.17;0.70;;;;;;;3.96;100.00;100103.16;4976536;28;20038;-69
2021/10/05 05:52:00;;;;;;;0.98;0.65;;;;;;;3.96;100.00;100111.13;4986506;28;20514;-70
2021/10/05 05:54:26;;;;;;;1.00;0.70;;;;;;;3.98;100.00;100111.00;4968795;28;20035;-70
2021/10/05 05:56:52;;;;;;;1.35;0.70;;;;;;;3.99;100.00;100114.50;4972968;28;20034;-70
2021/10/05 05:59:19;;;;;;;2.28;0.80;;;;;;;4.01;100.00;100120.50;4988875;28;20030;-69
2021/10/05 06:01:45;;;;;;;1.77;0.68;;;;;;;4.02;100.00;100122.16;4946738;28;20133;-71
2021/10/05 06:04:12;;;;;;;2.55;0.90;;;;;;;4.06;100.00;100124.38;4990136;28;20041;-70
2021/10/05 06:06:37;;;;;;;3.30;0.70;;;;;;;4.05;100.00;100120.06;4968288;28;20407;-70
2021/10/05 06:09:04;;;;;;;2.42;0.70;;;;;;;4.08;100.00;100130.41;4983505;28;20048;-70
2021/10/05 06:11:32;;;;;;;0.95;0.65;;;;;;;4.11;100.00;100132.75;4988542;28;20388;-70
2021/10/05 06:13:58;;;;;;;1.13;0.65;;;;;;;4.11;100.00;100130.09;4987525;28;20037;-70
2021/10/05 06:16:24;;;;;;;3.60;0.73;;;;;;;4.16;100.00;100145.63;4990004;28;20035;-69
2021/10/05 06:18:50;;;;;;;2.67;0.80;;;;;;;4.17;100.00;100147.28;4954288;28;20065;-70
2021/10/05 06:21:15;;;;;;;1.38;0.95;;;;;;;4.18;100.00;100159.59;4953483;28;20081;-70
2021/10/05 06:23:41;;;;;;;1.67;0.80;;;;;;;4.16;100.00;100153.59;4952269;28;20039;-70
2021/10/05 06:26:07;;;;;;;2.53;1.10;;;;;;;4.18;100.00;100156.94;4981655;28;20037;-69
2021/10/05 06:28:33;;;;;;;3.35;1.23;;;;;;;4.19;100.00;100164.78;4971329;28;20042;-67
2021/10/05 06:31:01;;;;;;;2.47;1.13;;;;;;;4.16;100.00;100170.41;4970549;28;20041;-70
2021/10/05 06:33:27;;;;;;;3.35;0.80;;;;;;;4.15;100.00;100175.88;4956716;28;20045;-69
2021/10/05 06:35:52;;;;;;;1.73;0.80;;;;;;;4.18;100.00;100183.53;4947787;28;20042;-69
2021/10/05 06:38:18;;;;;;;0.88;0.70;;;;;;;4.19;100.00;100186.06;4949279;28;20037;-69
2021/10/05 06:40:44;;;;;;;2.88;0.88;;;;;;;4.19;100.00;100185.25;4984438;28;20045;-69
2021/10/05 06:43:10;;;;;;;3.65;0.82;;;;;;;4.20;100.00;100192.22;4984491;28;20035;-69
2021/10/05 06:45:36;;;;;;;3.42;0.73;;;;;;;4.24;100.00;100190.13;4987414;28;20096;-70
2021/10/05 06:48:03;;;;;;;2.50;1.00;;;;;;;4.24;100.00;100196.28;4988577;28;20482;-69
2021/10/05 06:50:32;;;;;;;1.98;1.25;;;;;;;4.18;100.00;100194.19;4977296;28;20038;-69
2021/10/05 06:52:58;;;;;;;4.45;2.33;;;;;;;4.15;100.00;100197.16;4986356;28;20041;-69
2021/10/05 06:55:24;;;;;;;3.17;1.70;;;;;;;4.16;100.00;100205.00;4977880;28;20042;-70
2021/10/05 06:57:50;;;;;;;4.32;1.70;;;;;;;4.18;100.00;100207.50;4991012;28;20034;-71
2021/10/05 07:00:16;;;;;;;3.60;1.75;;;;;;;4.17;100.00;100205.81;4962363;28;20057;-69
2021/10/05 07:02:44;;;;;;;4.95;1.60;;;;;;;4.11;100.00;100203.78;4962711;28;20482;-69
2021/10/05 07:05:10;;;;;;;1.77;1.00;;;;;;;4.20;100.00;100213.50;4993867;28;20034;-70
2021/10/05 07:07:39;;;;;;;1.83;1.02;;;;;;;4.24;100.00;100211.41;4974966;28;20161;-68
2021/10/05 07:10:06;;;;;;;1.77;1.00;;;;;;;4.51;100.00;100229.19;4993439;28;20052;-69
2021/10/05 07:12:31;;;;;;;4.32;1.30;;;;;;;5.02;100.00;100230.34;4991312;28;20026;-69
2021/10/05 07:14:58;;;;;;;5.20;1.60;;;;;;;6.20;100.00;100236.19;4975903;28;20117;-70
2021/10/05 07:17:24;;;;;;;4.88;2.47;;;;;;;7.46;99.37;100232.41;4967705;28;20027;-69
2021/10/05 07:19:49;;;;;;;7.47;3.00;;;;;;;8.59;97.06;100244.78;4961268;28;20034;-70
2021/10/05 07:22:15;;;;;;;6.70;3.25;;;;;;;9.60;94.93;100240.22;4987775;28;20460;-66
2021/10/05 07:24:41;;;;;;;4.47;2.33;;;;;;;10.40;92.29;100252.13;4974933;28;20658;-69
2021/10/05 07:27:06;;;;;;;3.85;1.60;;;;;;;11.05;89.51;100255.78;4989105;28;20038;-70
2021/10/05 07:29:32;;;;;;;3.03;1.60;;;;;;;11.55;88.26;100256.69;4987022;28;20022;-68
2021/10/05 07:31:58;;;;;;;3.15;1.23;;;;;;;10.93;89.69;100259.00;4956558;28;20038;-68
2021/10/05 07:34:23;;;;;;;2.97;1.20;;;;;;;10.87;89.64;100258.91;4991325;28;20060;-70
2021/10/05 07:36:51;;;;;;;5.15;1.40;;;;;;;11.47;87.83;100272.97;4965683;28;20093;-70
2021/10/05 07:39:17;;;;;;;8.65;1.65;;;;;;;12.44;85.08;100266.84;4976474;28;20110;-68
2021/10/05 07:41:43;;;;;;;4.78;1.50;;;;;;;13.02;83.81;100280.75;4990255;28;20377;-70
2021/10/05 07:44:11;;;;;;;2.25;1.45;;;;;;;13.62;81.82;100276.28;4989010;28;20034;-69
2021/10/05 07:46:38;;;;;;;3.88;1.40;;;;;;;13.94;80.91;100279.19;4987581;28;20121;-69
2021/10/05 07:49:04;;;;;;;1.92;1.15;;;;;;;13.16;83.38;100284.31;4969544;28;20464;-69
2021/10/05 07:51:30;;;;;;;6.22;1.30;;;;;;;13.02;84.14;100285.28;4974008;28;20033;-67
2021/10/05 07:53:56;;;;;;;1.92;1.10;;;;;;;12.35;86.17;100282.31;4976081;28;20089;-68
2021/10/05 07:56:21;;;;;;;4.97;1.20;;;;;;;13.11;83.55;100278.69;4959614;28;20039;-67
2021/10/05 07:58:47;;;;;;;1.75;1.20;;;;;;;13.63;82.70;100290.63;4990676;28;20066;-68
2021/10/05 08:01:13;;;;;;;2.65;1.10;;;;;;;14.64;80.14;100300.28;4987218;28;20030;-67
2021/10/05 08:03:38;;;;;;;4.18;1.95;;;;;;;15.41;78.04;100305.72;4991209;28;20026;-69
2021/10/05 08:06:04;;;;;;;5.15;1.55;;;;;;;16.02;76.61;100313.19;4973372;28;20080;-67
2021/10/05 08:08:30;;;;;;;1.25;0.80;;;;;;;16.47;75.51;100310.25;4990966;28;20468;-68
2021/10/05 08:10:55;;;;;;;1.95;0.80;;;;;;;16.92;74.71;100312.66;4958641;28;20503;-67
2021/10/05 08:13:21;;;;;;;1.40;0.88;;;;;;;17.34;73.67;100315.44;4959613;28;20089;-67
2021/10/05 08:15:47;;;;;;;1.63;0.90;;;;;;;17.61;73.13;100317.75;4990679;28;20045;-66
2021/10/05 08:18:13;;;;;;;2.28;0.93;;;;;;;17.89;72.36;100328.00;4986415;28;20280;-68
2021/10/05 08:20:39;;;;;;;2.05;0.90;;;;;;;18.07;72.11;100336.06;4980231;28;20037;-68
2021/10/05 08:23:05;;;;;;;1.70;0.73;;;;;;;18.22;71.52;100333.69;4973970;28;20575;-67
2021/10/05 08:25:31;;;;;;;2.35;0.73;;;;;;;18.45;71.57;100340.22;4956007;28;20125;-67
2021/10/05 08:28:02;;;;;;;0.77;0.68;;;;;;;18.61;70.81;100355.00;4957524;28;20062;-68
2021/10/05 08:30:28;;;;;;;1.98;0.93;;;;;;;18.72;70.92;100353.31;4956162;28;20120;-67
2021/10/05 08:32:55;;;;;;;3.97;0.80;;;;;;;18.88;70.87;100356.16;4990319;28;20445;-67
2021/10/05 08:35:21;;;;;;;2.47;0.65;;;;;;;19.05;69.54;100356.25;4989501;28;20038;-67
2021/10/05 08:37:48;;;;;;;2.85;0.85;;;;;;;18.74;68.65;100357.47;4959800;28;20084;-67
2021/10/05 08:40:14;;;;;;;1.05;0.50;;;;;;;18.90;69.34;100355.94;4970188;28;20046;-67
2021/10/05 08:42:40;;;;;;;1.42;0.52;;;;;;;19.16;69.04;100365.44;4955847;28;20397;-66
2021/10/05 08:45:07;;;;;;;2.08;0.73;;;;;;;19.28;68.25;100360.75;4967125;28;20421;-66
2021/10/05 08:47:33;;;;;;;1.55;0.60;;;;;;;19.39;67.77;100372.69;4984424;28;20499;-68
2021/10/05 08:49:59;;;;;;;2.17;0.60;;;;;;;19.68;67.35;100372.72;4970968;28;20038;-68
2021/10/05 08:52:25;;;;;;;1.90;0.70;;;;;;;19.72;65.64;100365.69;4990144;28;20431;-66
2021/10/05 08:54:51;;;;;;;1.02;0.50;;;;;;;19.72;65.79;100374.72;4972873;28;20486;-67
2021/10/05 08:57:17;;;;;;;2.20;0.63;;;;;;;19.87;65.59;100373.31;4988411;28;20038;-66
2021/10/05 08:59:43;;;;;;;2.33;0.60;;;;;;;20.07;64.01;100386.47;4963878;28;20038;-68
2021/10/05 09:02:13;;;;;;;1.50;0.80;;;;;;;20.06;63.08;100379.34;4960034;28;20496;-66
2021/10/05 09:04:40;;;;;;;2.80;0.73;;;;;;;20.03;62.54;100390.75;4979279;28;20042;-70
2021/10/05 09:07:21;;;;;;;1.75;0.90;;;;;;;20.03;61.60;100397.06;4986303;28;20034;-67
2021/10/05 09:10:00;;;;;;;2.95;0.80;;;;;;;20.17;60.58;100398.41;4991335;28;20041;-66
2021/10/05 09:12:29;;;;;;;2.72;0.70;;;;;;;20.26;59.83;100393.34;4989251;28;20046;-67
2021/10/05 09:14:56;;;;;;;1.27;0.60;;;;;;;20.04;58.08;100404.19;4956169;28;20042;-67
2021/10/05 09:17:22;;;;;;;1.98;0.60;;;;;;;20.17;57.68;100401.13;4970232;28;20031;-69
2021/10/05 09:19:49;;;;;;;2.85;0.65;;;;;;;20.19;57.07;100412.63;4970057;28;20041;-66
2021/10/05 09:22:25;;;;;;;1.10;0.50;;;;;;;19.31;57.61;100414.78;4989965;28;20054;-66
2021/10/05 09:24:57;;;;;;;1.90;0.50;;;;;;;18.00;60.57;100417.78;4991345;28;20038;-66
2021/10/05 09:27:24;;;;;;;1.92;0.90;;;;;;;17.65;62.00;100422.25;4989312;28;20036;-65
2021/10/05 09:29:50;;;;;;;2.28;0.60;;;;;;;17.70;61.59;100422.41;4958405;28;20169;-69
2021/10/05 09:32:27;;;;;;;1.55;0.60;;;;;;;17.34;62.21;100435.00;4987552;28;20026;-66
2021/10/05 09:34:55;;;;;;;2.65;0.82;;;;;;;18.12;60.66;100430.59;4957090;28;20034;-67
2021/10/05 09:37:34;;;;;;;2.47;0.80;;;;;;;19.23;57.16;100441.59;4965885;28;20388;-65
2021/10/05 09:40:08;;;;;;;1.48;0.90;;;;;;;19.96;55.00;100442.78;4957190;28;20129;-66
2021/10/05 09:42:39;;;;;;;2.10;0.50;;;;;;;20.57;53.28;100441.09;4965240;28;20081;-66
2021/10/05 09:45:06;;;;;;;0.90;0.60;;;;;;;20.98;51.65;100440.84;5003310;28;20073;-67
2021/10/05 09:47:40;;;;;;;1.88;0.60;;;;;;;21.26;49.72;100448.06;5002363;28;20088;-68
2021/10/05 09:50:09;;;;;;;3.33;0.80;;;;;;;21.29;48.71;100456.56;4986943;28;20038;-68
2021/10/05 09:52:38;;;;;;;0.85;0.60;;;;;;;;;;4970923;28;20092;-64
2021/10/05 09:55:05;;;;;;;1.02;0.50;;;;;;;20.90;48.47;100463.97;4990312;28;20038;-66
2021/10/05 09:57:31;;;;;;;2.42;0.80;;;;;;;20.62;48.02;100454.84;5006186;28;20060;-68
2021/10/05 09:59:56;;;;;;;1.27;0.43;;;;;;;20.28;48.14;100469.53;4958063;28;20034;-65
2021/10/05 10:02:22;;;;;;;1.63;0.50;;;;;;;20.08;47.53;100478.19;4988940;28;20423;-67
2021/10/05 10:04:48;;;;;;;1.30;0.60;;;;;;;20.22;48.11;100474.09;4973645;28;20034;-66
2021/10/05 10:07:15;;;;;;;4.80;0.80;;;;;;;20.04;48.23;100480.59;4990391;28;20490;-66
2021/10/05 10:09:41;;;;;;;0.55;0.40;;;;;;;19.82;47.99;100482.34;4968579;28;20376;-66
2021/10/05 10:12:07;;;;;;;1.60;1.08;;;;;;;19.93;48.24;100489.69;4988546;28;20046;-66
2021/10/05 10:14:33;;;;;;;1.85;0.70;;;;;;;20.13;48.30;100498.22;4955850;28;20472;-66
2021/10/05 10:16:59;;;;;;;2.70;0.70;;;;;;;19.96;47.69;100502.81;4987270;28;20468;-65
2021/10/05 10:19:29;;;;;;;2.92;0.52;;;;;;;19.59;48.75;100496.88;4949364;28;20097;-65
2021/10/05 10:22:06;;;;;;;1.20;0.40;;;;;;;19.39;49.15;100497.28;4971142;28;20136;-65
2021/10/05 10:24:43;;;;;;;0.88;0.70;;;;;;;18.57;51.56;100506.28;4976180;28;20042;-65
2021/10/05 10:27:10;;;;;;;3.20;0.65;;;;;;;17.63;54.33;100514.94;4984139;28;20132;-67
2021/10/05 10:29:36;;;;;;;2.60;0.80;;;;;;;17.45;54.77;100525.81;4986303;28;20030;-65
2021/10/05 10:32:14;;;;;;;4.72;0.68;;;;;;;16.79;56.31;100527.31;4987767;28;20038;-67
2021/10/05 10:34:43;;;;;;;2.00;0.50;;;;;;;16.79;56.53;100524.63;4989311;28;20046;-66
2021/10/05 10:37:13;;;;;;;2.50;0.70;;;;;;;16.87;57.47;100525.16;4970739;28;20173;-66
2021/10/05 10:39:39;;;;;;;0.98;0.43;;;;;;;16.95;56.17;100515.06;4965011;28;20030;-65
2021/10/05 10:42:06;;;;;;;1.00;0.40;;;;;;;17.01;56.28;100527.75;4972580;28;20480;-65
2021/10/05 10:44:37;;;;;;;2.30;0.50;;;;;;;16.79;56.98;100536.31;4979323;28;20042;-65
2021/10/05 10:47:15;;;;;;;0.73;0.50;;;;;;;16.01;58.27;100534.75;4984882;28;20580;-65
2021/10/05 10:49:53;;;;;;;0.40;0.40;;;;;;;14.91;60.82;100540.06;4971465;28;20074;-68
2021/10/05 10:52:41;;;;;;;4.07;0.50;;;;;;;14.19;62.06;100547.06;4959394;28;20041;-65
2021/10/05 10:55:08;;;;;;;2.05;0.50;;;;;;;13.60;63.82;100550.38;4957385;28;20037;-67
2021/10/05 10:57:54;;;;;;;1.85;0.45;;;;;;;13.33;66.46;100549.41;4974162;28;20057;-65
2021/10/05 11:00:24;;;;;;;0.63;0.43;;;;;;;13.02;68.58;100549.78;4972864;28;20070;-65
2021/10/05 11:02:57;;;;;;;2.65;0.70;;;;;;;12.81;69.75;100564.16;4982917;28;20065;-66
2021/10/05 11:05:24;;;;;;;0.53;0.53;;;;;;;12.72;70.26;100550.00;4972855;28;20034;-68
2021/10/05 11:07:51;;;;;;;1.05;0.55;;;;;;;12.61;70.20;100543.25;4960688;28;20030;-65
2021/10/05 11:10:24;;;;;;;0.70;0.50;;;;;;;12.56;70.52;100558.34;4984044;28;20029;-65
2021/10/05 11:12:51;;;;;;;0.93;0.50;;;;;;;12.52;70.82;100547.97;4969338;28;20030;-64
2021/10/05 11:15:41;;;;;;;0.38;0.35;;;;;;;12.59;71.31;100557.97;4968007;28;20042;-65
2021/10/05 11:18:20;;;;;;;0.80;0.50;;;;;;;12.91;70.44;100553.88;4969741;28;20042;-67
2021/10/05 11:20:52;;;;;;;3.25;1.38;;;;;;;13.20;68.93;100563.63;4988303;28;20048;-66
2021/10/05 11:23:20;;;;;;;1.73;0.32;;;;;;;13.43;66.93;100568.78;4972708;28;20383;-67
2021/10/05 11:25:51;;;;;;;0.38;0.38;;;;;;;13.54;66.10;100576.31;4988958;28;20078;-66
2021/10/05 11:28:21;;;;;;;1.55;0.40;;;;;;;13.54;65.99;100568.22;4984071;28;20121;-65
2021/10/05 11:30:49;;;;;;;0.55;0.40;;;;;;;13.51;65.58;100586.69;4970724;28;20046;-68
2021/10/05 11:33:26;;;;;;;1.92;0.50;;;;;;;13.32;65.87;100591.78;4966150;28;20391;-67